sensor_id;sensor_type;location;lat;lon;timestamp;P1;durP1;ratioP1;P2;durP2;ratioP2
64826;SDS011;51265;53.972;12.286;2022-09-21T00:01:04;4.90;;;3.72;;
64826;SDS011;51265;53.972;12.286;2022-09-21T00:03:30;5.40;;;3.90;;
64826;SDS011;51265;53.972;12.286;2022-09-21T00:08:50;6.10;;;3.90;;
64826;SDS011;51265;53.972;12.286;2022-09-21T00:11:21;5.07;;;3.85;;
64826;SDS011;51265;53.972;12.286;2022-09-21T00:13:59;7.85;;;3.92;;
64826;SDS011;51265;53.972;12.286;2022-09-21T00:16:32;7.65;;;4.07;;
64826;SDS011;51265;53.972;12.286;2022-09-21T00:18:58;7.22;;;4.55;;
64826;SDS011;51265;53.972;12.286;2022-09-21T00:21:24;6.60;;;4.35;;
64826;SDS011;51265;53.972;12.286;2022-09-21T00:23:52;5.22;;;4.25;;
64826;SDS011;51265;53.972;12.286;2022-09-21T00:26:21;7.18;;;4.85;;
64826;SDS011;51265;53.972;12.286;2022-09-21T00:28:53;7.45;;;4.35;;
64826;SDS011;51265;53.972;12.286;2022-09-21T00:31:20;5.63;;;4.90;;
64826;SDS011;51265;53.972;12.286;2022-09-21T00:33:47;7.72;;;4.80;;
64826;SDS011;51265;53.972;12.286;2022-09-21T00:36:14;9.80;;;5.10;;
64826;SDS011;51265;53.972;12.286;2022-09-21T00:38:42;9.18;;;4.75;;
64826;SDS011;51265;53.972;12.286;2022-09-21T00:41:09;8.07;;;4.93;;
64826;SDS011;51265;53.972;12.286;2022-09-21T00:43:39;10.07;;;5.93;;
64826;SDS011;51265;53.972;12.286;2022-09-21T00:46:12;6.00;;;4.53;;
64826;SDS011;51265;53.972;12.286;2022-09-21T00:48:50;8.55;;;5.53;;
64826;SDS011;51265;53.972;12.286;2022-09-21T00:51:16;9.18;;;5.28;;
64826;SDS011;51265;53.972;12.286;2022-09-21T00:53:42;9.02;;;4.88;;
64826;SDS011;51265;53.972;12.286;2022-09-21T00:56:09;8.00;;;4.95;;
64826;SDS011;51265;53.972;12.286;2022-09-21T00:58:38;7.55;;;5.53;;
64826;SDS011;51265;53.972;12.286;2022-09-21T01:01:08;7.15;;;4.35;;
64826;SDS011;51265;53.972;12.286;2022-09-21T01:03:36;8.77;;;4.72;;
64826;SDS011;51265;53.972;12.286;2022-09-21T01:06:03;6.93;;;4.88;;
64826;SDS011;51265;53.972;12.286;2022-09-21T01:08:30;8.25;;;5.30;;
64826;SDS011;51265;53.972;12.286;2022-09-21T01:11:03;8.20;;;5.38;;
64826;SDS011;51265;53.972;12.286;2022-09-21T01:27:24;6.20;;;4.65;;
64826;SDS011;51265;53.972;12.286;2022-09-21T01:30:06;10.82;;;6.22;;
64826;SDS011;51265;53.972;12.286;2022-09-21T01:32:39;8.77;;;5.65;;
64826;SDS011;51265;53.972;12.286;2022-09-21T01:40:12;11.30;;;5.32;;
64826;SDS011;51265;53.972;12.286;2022-09-21T01:42:45;12.07;;;5.78;;
64826;SDS011;51265;53.972;12.286;2022-09-21T01:45:14;9.73;;;6.25;;
64826;SDS011;51265;53.972;12.286;2022-09-21T01:47:46;10.35;;;5.47;;
64826;SDS011;51265;53.972;12.286;2022-09-21T01:50:22;9.43;;;6.50;;
64826;SDS011;51265;53.972;12.286;2022-09-21T01:53:02;16.02;;;6.68;;
64826;SDS011;51265;53.972;12.286;2022-09-21T01:55:35;11.30;;;7.00;;
64826;SDS011;51265;53.972;12.286;2022-09-21T01:58:10;10.30;;;6.72;;
64826;SDS011;51265;53.972;12.286;2022-09-21T02:00:43;14.93;;;7.07;;
64826;SDS011;51265;53.972;12.286;2022-09-21T02:03:33;10.45;;;6.32;;
64826;SDS011;51265;53.972;12.286;2022-09-21T02:06:07;11.50;;;6.55;;
64826;SDS011;51265;53.972;12.286;2022-09-21T02:08:34;8.15;;;5.88;;
64826;SDS011;51265;53.972;12.286;2022-09-21T02:11:02;10.50;;;6.32;;
64826;SDS011;51265;53.972;12.286;2022-09-21T02:13:36;13.88;;;6.45;;
64826;SDS011;51265;53.972;12.286;2022-09-21T02:16:09;13.10;;;6.35;;
64826;SDS011;51265;53.972;12.286;2022-09-21T02:24:37;15.82;;;6.53;;
64826;SDS011;51265;53.972;12.286;2022-09-21T02:27:29;16.92;;;7.15;;
64826;SDS011;51265;53.972;12.286;2022-09-21T02:30:08;14.00;;;7.20;;
64826;SDS011;51265;53.972;12.286;2022-09-21T02:40:48;15.90;;;7.20;;
64826;SDS011;51265;53.972;12.286;2022-09-21T02:46:13;14.30;;;8.10;;
64826;SDS011;51265;53.972;12.286;2022-09-21T02:48:48;17.25;;;7.97;;
64826;SDS011;51265;53.972;12.286;2022-09-21T02:51:20;14.75;;;8.27;;
64826;SDS011;51265;53.972;12.286;2022-09-21T02:53:53;14.40;;;8.52;;
64826;SDS011;51265;53.972;12.286;2022-09-21T02:56:21;16.25;;;8.50;;
64826;SDS011;51265;53.972;12.286;2022-09-21T02:58:49;14.90;;;7.70;;
64826;SDS011;51265;53.972;12.286;2022-09-21T03:01:19;14.07;;;7.50;;
64826;SDS011;51265;53.972;12.286;2022-09-21T03:03:47;19.27;;;8.48;;
64826;SDS011;51265;53.972;12.286;2022-09-21T03:06:13;20.10;;;8.18;;
64826;SDS011;51265;53.972;12.286;2022-09-21T03:08:39;15.20;;;8.27;;
64826;SDS011;51265;53.972;12.286;2022-09-21T03:11:05;14.60;;;8.05;;
64826;SDS011;51265;53.972;12.286;2022-09-21T03:13:31;13.43;;;7.45;;
64826;SDS011;51265;53.972;12.286;2022-09-21T03:16:01;16.23;;;8.85;;
64826;SDS011;51265;53.972;12.286;2022-09-21T03:18:32;18.58;;;8.35;;
64826;SDS011;51265;53.972;12.286;2022-09-21T03:20:59;15.65;;;8.55;;
64826;SDS011;51265;53.972;12.286;2022-09-21T03:23:25;17.95;;;8.32;;
64826;SDS011;51265;53.972;12.286;2022-09-21T03:25:51;18.88;;;8.98;;
64826;SDS011;51265;53.972;12.286;2022-09-21T03:28:17;20.02;;;9.15;;
64826;SDS011;51265;53.972;12.286;2022-09-21T03:30:44;18.08;;;9.45;;
64826;SDS011;51265;53.972;12.286;2022-09-21T03:33:11;19.58;;;9.15;;
64826;SDS011;51265;53.972;12.286;2022-09-21T03:35:37;19.25;;;7.88;;
64826;SDS011;51265;53.972;12.286;2022-09-21T03:38:04;17.35;;;8.55;;
64826;SDS011;51265;53.972;12.286;2022-09-21T03:40:30;17.02;;;9.02;;
64826;SDS011;51265;53.972;12.286;2022-09-21T03:42:57;19.95;;;8.40;;
64826;SDS011;51265;53.972;12.286;2022-09-21T03:45:23;15.40;;;8.23;;
64826;SDS011;51265;53.972;12.286;2022-09-21T03:47:55;17.20;;;8.57;;
64826;SDS011;51265;53.972;12.286;2022-09-21T03:50:26;19.98;;;8.60;;
64826;SDS011;51265;53.972;12.286;2022-09-21T03:52:53;18.52;;;9.27;;
64826;SDS011;51265;53.972;12.286;2022-09-21T03:55:20;18.40;;;9.48;;
64826;SDS011;51265;53.972;12.286;2022-09-21T03:57:47;16.80;;;8.00;;
64826;SDS011;51265;53.972;12.286;2022-09-21T04:00:13;15.98;;;8.35;;
64826;SDS011;51265;53.972;12.286;2022-09-21T04:02:39;15.60;;;7.60;;
64826;SDS011;51265;53.972;12.286;2022-09-21T04:05:10;14.38;;;7.30;;
64826;SDS011;51265;53.972;12.286;2022-09-21T04:07:39;12.73;;;7.20;;
64826;SDS011;51265;53.972;12.286;2022-09-21T04:10:07;19.00;;;8.23;;
64826;SDS011;51265;53.972;12.286;2022-09-21T04:12:38;14.38;;;8.35;;
64826;SDS011;51265;53.972;12.286;2022-09-21T04:15:13;19.73;;;9.00;;
64826;SDS011;51265;53.972;12.286;2022-09-21T04:17:41;17.20;;;9.32;;
64826;SDS011;51265;53.972;12.286;2022-09-21T04:20:07;18.65;;;8.63;;
64826;SDS011;51265;53.972;12.286;2022-09-21T04:22:36;21.52;;;9.07;;
64826;SDS011;51265;53.972;12.286;2022-09-21T04:25:03;17.38;;;9.43;;
64826;SDS011;51265;53.972;12.286;2022-09-21T04:27:30;17.48;;;8.73;;
64826;SDS011;51265;53.972;12.286;2022-09-21T04:29:58;21.02;;;8.38;;
64826;SDS011;51265;53.972;12.286;2022-09-21T04:32:24;14.80;;;8.80;;
64826;SDS011;51265;53.972;12.286;2022-09-21T04:34:50;20.48;;;9.82;;
64826;SDS011;51265;53.972;12.286;2022-09-21T04:37:16;20.15;;;8.80;;
64826;SDS011;51265;53.972;12.286;2022-09-21T04:39:43;16.42;;;8.63;;
64826;SDS011;51265;53.972;12.286;2022-09-21T04:42:09;16.25;;;7.97;;
64826;SDS011;51265;53.972;12.286;2022-09-21T04:44:35;17.67;;;8.00;;
64826;SDS011;51265;53.972;12.286;2022-09-21T04:47:02;19.42;;;9.05;;
64826;SDS011;51265;53.972;12.286;2022-09-21T04:49:28;19.52;;;9.35;;
64826;SDS011;51265;53.972;12.286;2022-09-21T04:51:54;17.23;;;8.32;;
64826;SDS011;51265;53.972;12.286;2022-09-21T04:54:20;17.92;;;8.95;;
64826;SDS011;51265;53.972;12.286;2022-09-21T04:56:46;16.92;;;8.52;;
64826;SDS011;51265;53.972;12.286;2022-09-21T04:59:12;20.83;;;9.05;;
64826;SDS011;51265;53.972;12.286;2022-09-21T05:01:38;17.08;;;7.95;;
64826;SDS011;51265;53.972;12.286;2022-09-21T05:04:03;14.02;;;7.55;;
64826;SDS011;51265;53.972;12.286;2022-09-21T05:06:31;12.55;;;7.20;;
64826;SDS011;51265;53.972;12.286;2022-09-21T05:08:58;11.98;;;6.47;;
64826;SDS011;51265;53.972;12.286;2022-09-21T05:11:43;11.73;;;6.07;;
64826;SDS011;51265;53.972;12.286;2022-09-21T05:14:09;18.95;;;7.80;;
64826;SDS011;51265;53.972;12.286;2022-09-21T05:16:37;11.15;;;7.20;;
64826;SDS011;51265;53.972;12.286;2022-09-21T05:19:03;14.07;;;7.35;;
64826;SDS011;51265;53.972;12.286;2022-09-21T05:21:29;13.68;;;7.50;;
64826;SDS011;51265;53.972;12.286;2022-09-21T05:23:56;14.68;;;8.00;;
64826;SDS011;51265;53.972;12.286;2022-09-21T05:26:23;19.05;;;8.35;;
64826;SDS011;51265;53.972;12.286;2022-09-21T05:28:49;17.05;;;8.43;;
64826;SDS011;51265;53.972;12.286;2022-09-21T05:33:47;12.65;;;7.70;;
64826;SDS011;51265;53.972;12.286;2022-09-21T05:36:30;15.68;;;8.10;;
64826;SDS011;51265;53.972;12.286;2022-09-21T05:41:26;16.35;;;6.70;;
64826;SDS011;51265;53.972;12.286;2022-09-21T05:43:53;13.32;;;7.50;;
64826;SDS011;51265;53.972;12.286;2022-09-21T05:46:33;12.98;;;7.63;;
64826;SDS011;51265;53.972;12.286;2022-09-21T05:49:06;12.13;;;7.00;;
64826;SDS011;51265;53.972;12.286;2022-09-21T06:00:17;16.48;;;7.65;;
64826;SDS011;51265;53.972;12.286;2022-09-21T06:03:03;12.93;;;7.72;;
64826;SDS011;51265;53.972;12.286;2022-09-21T06:05:34;15.63;;;7.45;;
64826;SDS011;51265;53.972;12.286;2022-09-21T06:08:00;11.63;;;6.82;;
64826;SDS011;51265;53.972;12.286;2022-09-21T06:10:27;14.02;;;7.50;;
64826;SDS011;51265;53.972;12.286;2022-09-21T06:12:58;13.05;;;6.93;;
64826;SDS011;51265;53.972;12.286;2022-09-21T06:15:24;14.50;;;7.40;;
64826;SDS011;51265;53.972;12.286;2022-09-21T06:17:51;12.50;;;7.30;;
64826;SDS011;51265;53.972;12.286;2022-09-21T06:20:16;13.50;;;6.85;;
64826;SDS011;51265;53.972;12.286;2022-09-21T06:22:42;13.18;;;7.63;;
64826;SDS011;51265;53.972;12.286;2022-09-21T06:25:09;13.00;;;7.20;;
64826;SDS011;51265;53.972;12.286;2022-09-21T06:27:35;12.07;;;6.60;;
64826;SDS011;51265;53.972;12.286;2022-09-21T06:30:01;10.20;;;6.68;;
64826;SDS011;51265;53.972;12.286;2022-09-21T06:32:27;10.77;;;6.88;;
64826;SDS011;51265;53.972;12.286;2022-09-21T06:34:53;12.07;;;6.70;;
64826;SDS011;51265;53.972;12.286;2022-09-21T06:37:19;13.30;;;6.88;;
64826;SDS011;51265;53.972;12.286;2022-09-21T06:39:45;14.77;;;6.80;;
64826;SDS011;51265;53.972;12.286;2022-09-21T06:42:11;10.50;;;6.50;;
64826;SDS011;51265;53.972;12.286;2022-09-21T06:44:37;10.85;;;6.75;;
64826;SDS011;51265;53.972;12.286;2022-09-21T06:47:03;9.85;;;6.05;;
64826;SDS011;51265;53.972;12.286;2022-09-21T06:49:29;10.55;;;6.57;;
64826;SDS011;51265;53.972;12.286;2022-09-21T06:51:55;12.07;;;7.03;;
64826;SDS011;51265;53.972;12.286;2022-09-21T06:54:21;10.95;;;6.90;;
64826;SDS011;51265;53.972;12.286;2022-09-21T06:56:47;12.77;;;6.70;;
64826;SDS011;51265;53.972;12.286;2022-09-21T06:59:13;9.82;;;6.65;;
64826;SDS011;51265;53.972;12.286;2022-09-21T07:01:39;10.90;;;6.78;;
64826;SDS011;51265;53.972;12.286;2022-09-21T07:04:05;14.13;;;6.35;;
64826;SDS011;51265;53.972;12.286;2022-09-21T07:06:34;10.48;;;6.57;;
64826;SDS011;51265;53.972;12.286;2022-09-21T07:09:00;9.07;;;5.85;;
64826;SDS011;51265;53.972;12.286;2022-09-21T07:11:27;7.75;;;5.57;;
64826;SDS011;51265;53.972;12.286;2022-09-21T07:13:54;10.25;;;5.22;;
64826;SDS011;51265;53.972;12.286;2022-09-21T07:16:21;8.15;;;4.47;;
64826;SDS011;51265;53.972;12.286;2022-09-21T07:18:48;10.18;;;4.22;;
64826;SDS011;51265;53.972;12.286;2022-09-21T07:21:14;12.05;;;3.95;;
64826;SDS011;51265;53.972;12.286;2022-09-21T07:23:40;8.55;;;3.47;;
64826;SDS011;51265;53.972;12.286;2022-09-21T07:26:10;5.60;;;3.60;;
64826;SDS011;51265;53.972;12.286;2022-09-21T07:28:38;6.88;;;3.63;;
64826;SDS011;51265;53.972;12.286;2022-09-21T07:31:08;7.10;;;2.58;;
64826;SDS011;51265;53.972;12.286;2022-09-21T07:33:39;8.80;;;3.03;;
64826;SDS011;51265;53.972;12.286;2022-09-21T07:36:06;5.32;;;2.25;;
64826;SDS011;51265;53.972;12.286;2022-09-21T07:38:35;3.53;;;1.88;;
64826;SDS011;51265;53.972;12.286;2022-09-21T07:41:04;3.40;;;1.58;;
64826;SDS011;51265;53.972;12.286;2022-09-21T07:43:31;2.45;;;1.00;;
64826;SDS011;51265;53.972;12.286;2022-09-21T07:45:58;1.83;;;0.85;;
64826;SDS011;51265;53.972;12.286;2022-09-21T07:48:26;1.60;;;0.88;;
64826;SDS011;51265;53.972;12.286;2022-09-21T07:50:53;4.18;;;0.63;;
64826;SDS011;51265;53.972;12.286;2022-09-21T07:53:22;2.08;;;0.55;;
64826;SDS011;51265;53.972;12.286;2022-09-21T07:55:47;1.23;;;0.50;;
64826;SDS011;51265;53.972;12.286;2022-09-21T07:58:14;3.35;;;0.55;;
64826;SDS011;51265;53.972;12.286;2022-09-21T08:01:03;4.43;;;0.80;;
64826;SDS011;51265;53.972;12.286;2022-09-21T08:03:30;2.45;;;0.57;;
64826;SDS011;51265;53.972;12.286;2022-09-21T08:05:57;2.15;;;0.70;;
64826;SDS011;51265;53.972;12.286;2022-09-21T08:16:36;2.40;;;0.60;;
64826;SDS011;51265;53.972;12.286;2022-09-21T08:19:03;1.13;;;0.40;;
64826;SDS011;51265;53.972;12.286;2022-09-21T08:21:29;4.80;;;0.63;;
64826;SDS011;51265;53.972;12.286;2022-09-21T08:23:55;1.80;;;0.43;;
64826;SDS011;51265;53.972;12.286;2022-09-21T08:26:22;2.55;;;0.60;;
64826;SDS011;51265;53.972;12.286;2022-09-21T08:28:50;1.25;;;0.30;;
64826;SDS011;51265;53.972;12.286;2022-09-21T08:31:18;3.67;;;0.60;;
64826;SDS011;51265;53.972;12.286;2022-09-21T08:33:46;4.38;;;0.50;;
64826;SDS011;51265;53.972;12.286;2022-09-21T08:36:12;2.67;;;0.40;;
64826;SDS011;51265;53.972;12.286;2022-09-21T08:38:38;2.30;;;0.32;;
64826;SDS011;51265;53.972;12.286;2022-09-21T08:41:18;4.40;;;0.60;;
64826;SDS011;51265;53.972;12.286;2022-09-21T08:46:43;3.60;;;0.60;;
64826;SDS011;51265;53.972;12.286;2022-09-21T08:49:18;1.35;;;0.50;;
64826;SDS011;51265;53.972;12.286;2022-09-21T08:51:52;5.65;;;0.50;;
64826;SDS011;51265;53.972;12.286;2022-09-21T08:57:00;1.35;;;0.32;;
64826;SDS011;51265;53.972;12.286;2022-09-21T08:59:27;2.42;;;0.20;;
64826;SDS011;51265;53.972;12.286;2022-09-21T09:01:57;1.17;;;0.32;;
64826;SDS011;51265;53.972;12.286;2022-09-21T09:04:39;2.90;;;0.40;;
64826;SDS011;51265;53.972;12.286;2022-09-21T09:21:07;0.80;;;0.30;;
64826;SDS011;51265;53.972;12.286;2022-09-21T09:23:58;2.50;;;0.30;;
64826;SDS011;51265;53.972;12.286;2022-09-21T09:26:29;2.30;;;0.40;;
64826;SDS011;51265;53.972;12.286;2022-09-21T09:29:41;3.22;;;0.30;;
64826;SDS011;51265;53.972;12.286;2022-09-21T09:31:53;1.08;;;0.30;;
64826;SDS011;51265;53.972;12.286;2022-09-21T09:37:11;1.60;;;0.47;;
64826;SDS011;51265;53.972;12.286;2022-09-21T09:39:40;2.17;;;0.20;;
64826;SDS011;51265;53.972;12.286;2022-09-21T09:42:19;1.25;;;0.25;;
64826;SDS011;51265;53.972;12.286;2022-09-21T09:44:57;0.38;;;0.20;;
64826;SDS011;51265;53.972;12.286;2022-09-21T09:52:48;2.03;;;0.20;;
64826;SDS011;51265;53.972;12.286;2022-09-21T09:55:20;0.10;;;0.10;;
64826;SDS011;51265;53.972;12.286;2022-09-21T09:57:49;1.15;;;0.20;;
64826;SDS011;51265;53.972;12.286;2022-09-21T10:00:16;2.60;;;0.40;;
64826;SDS011;51265;53.972;12.286;2022-09-21T10:02:54;2.25;;;0.57;;
64826;SDS011;51265;53.972;12.286;2022-09-21T10:05:24;1.17;;;0.40;;
64826;SDS011;51265;53.972;12.286;2022-09-21T10:07:55;2.17;;;0.20;;
64826;SDS011;51265;53.972;12.286;2022-09-21T10:15:48;1.73;;;0.70;;
64826;SDS011;51265;53.972;12.286;2022-09-21T10:18:19;3.38;;;0.32;;
64826;SDS011;51265;53.972;12.286;2022-09-21T10:23:25;1.73;;;0.32;;
64826;SDS011;51265;53.972;12.286;2022-09-21T10:25:53;0.85;;;0.30;;
64826;SDS011;51265;53.972;12.286;2022-09-21T10:28:20;2.53;;;0.40;;
64826;SDS011;51265;53.972;12.286;2022-09-21T10:30:47;0.43;;;0.20;;
64826;SDS011;51265;53.972;12.286;2022-09-21T10:33:20;0.60;;;0.22;;
64826;SDS011;51265;53.972;12.286;2022-09-21T10:35:47;1.73;;;0.40;;
64826;SDS011;51265;53.972;12.286;2022-09-21T10:38:16;0.75;;;0.20;;
64826;SDS011;51265;53.972;12.286;2022-09-21T10:40:43;1.20;;;0.10;;
64826;SDS011;51265;53.972;12.286;2022-09-21T10:46:10;0.63;;;0.20;;
64826;SDS011;51265;53.972;12.286;2022-09-21T10:48:36;1.52;;;0.30;;
64826;SDS011;51265;53.972;12.286;2022-09-21T10:51:02;2.05;;;0.30;;
64826;SDS011;51265;53.972;12.286;2022-09-21T10:53:33;1.40;;;0.30;;
64826;SDS011;51265;53.972;12.286;2022-09-21T10:56:05;2.88;;;0.32;;
64826;SDS011;51265;53.972;12.286;2022-09-21T10:58:32;0.77;;;0.20;;
64826;SDS011;51265;53.972;12.286;2022-09-21T11:01:12;1.23;;;0.30;;
64826;SDS011;51265;53.972;12.286;2022-09-21T11:04:10;7.47;;;0.55;;
64826;SDS011;51265;53.972;12.286;2022-09-21T11:06:58;1.35;;;0.20;;
64826;SDS011;51265;53.972;12.286;2022-09-21T11:09:38;2.65;;;0.30;;
64826;SDS011;51265;53.972;12.286;2022-09-21T11:17:42;2.10;;;0.47;;
64826;SDS011;51265;53.972;12.286;2022-09-21T11:20:21;1.17;;;0.32;;
64826;SDS011;51265;53.972;12.286;2022-09-21T11:26:03;1.35;;;0.50;;
64826;SDS011;51265;53.972;12.286;2022-09-21T11:28:45;2.00;;;0.20;;
64826;SDS011;51265;53.972;12.286;2022-09-21T11:31:20;0.80;;;0.30;;
64826;SDS011;51265;53.972;12.286;2022-09-21T11:45:23;0.77;;;0.17;;
64826;SDS011;51265;53.972;12.286;2022-09-21T11:50:46;1.23;;;0.30;;
64826;SDS011;51265;53.972;12.286;2022-09-21T12:01:44;1.63;;;0.17;;
64826;SDS011;51265;53.972;12.286;2022-09-21T12:04:42;2.80;;;0.40;;
64826;SDS011;51265;53.972;12.286;2022-09-21T12:07:25;0.43;;;0.30;;
64826;SDS011;51265;53.972;12.286;2022-09-21T12:12:52;4.07;;;0.30;;
64826;SDS011;51265;53.972;12.286;2022-09-21T12:15:32;0.88;;;0.10;;
64826;SDS011;51265;53.972;12.286;2022-09-21T12:20:46;1.48;;;0.22;;
64826;SDS011;51265;53.972;12.286;2022-09-21T12:23:21;0.38;;;0.10;;
64826;SDS011;51265;53.972;12.286;2022-09-21T12:25:55;1.35;;;0.35;;
64826;SDS011;51265;53.972;12.286;2022-09-21T12:31:20;4.05;;;0.30;;
64826;SDS011;51265;53.972;12.286;2022-09-21T12:33:52;0.98;;;0.38;;
64826;SDS011;51265;53.972;12.286;2022-09-21T12:36:45;1.83;;;0.30;;
64826;SDS011;51265;53.972;12.286;2022-09-21T12:39:24;2.50;;;0.20;;
64826;SDS011;51265;53.972;12.286;2022-09-21T12:41:58;0.40;;;0.10;;
64826;SDS011;51265;53.972;12.286;2022-09-21T12:44:31;0.65;;;0.30;;
64826;SDS011;51265;53.972;12.286;2022-09-21T12:47:34;1.13;;;0.80;;
64826;SDS011;51265;53.972;12.286;2022-09-21T12:50:57;3.13;;;0.20;;
64826;SDS011;51265;53.972;12.286;2022-09-21T12:53:25;0.75;;;0.25;;
64826;SDS011;51265;53.972;12.286;2022-09-21T12:56:05;2.92;;;0.32;;
64826;SDS011;51265;53.972;12.286;2022-09-21T13:01:32;0.77;;;0.22;;
64826;SDS011;51265;53.972;12.286;2022-09-21T13:09:54;0.60;;;0.20;;
64826;SDS011;51265;53.972;12.286;2022-09-21T13:12:23;1.27;;;0.20;;
64826;SDS011;51265;53.972;12.286;2022-09-21T13:14:55;3.63;;;0.22;;
64826;SDS011;51265;53.972;12.286;2022-09-21T13:17:28;0.70;;;0.20;;
64826;SDS011;51265;53.972;12.286;2022-09-21T13:22:31;2.10;;;0.35;;
64826;SDS011;51265;53.972;12.286;2022-09-21T13:25:32;0.35;;;0.30;;
64826;SDS011;51265;53.972;12.286;2022-09-21T13:33:31;2.80;;;0.20;;
64826;SDS011;51265;53.972;12.286;2022-09-21T13:54:18;0.70;;;0.28;;
64826;SDS011;51265;53.972;12.286;2022-09-21T13:56:59;3.55;;;0.40;;
64826;SDS011;51265;53.972;12.286;2022-09-21T13:59:28;1.10;;;0.20;;
64826;SDS011;51265;53.972;12.286;2022-09-21T14:01:57;1.85;;;0.20;;
64826;SDS011;51265;53.972;12.286;2022-09-21T14:04:32;2.35;;;0.52;;
64826;SDS011;51265;53.972;12.286;2022-09-21T14:07:04;0.50;;;0.20;;
64826;SDS011;51265;53.972;12.286;2022-09-21T14:09:42;1.17;;;0.40;;
64826;SDS011;51265;53.972;12.286;2022-09-21T14:12:20;0.10;;;0.10;;
64826;SDS011;51265;53.972;12.286;2022-09-21T14:17:44;1.67;;;0.20;;
64826;SDS011;51265;53.972;12.286;2022-09-21T14:20:32;1.25;;;0.20;;
64826;SDS011;51265;53.972;12.286;2022-09-21T14:23:22;0.55;;;0.20;;
64826;SDS011;51265;53.972;12.286;2022-09-21T14:25:53;0.30;;;0.20;;
64826;SDS011;51265;53.972;12.286;2022-09-21T14:28:41;1.15;;;0.17;;
64826;SDS011;51265;53.972;12.286;2022-09-21T14:31:15;0.95;;;0.20;;
64826;SDS011;51265;53.972;12.286;2022-09-21T14:33:44;0.32;;;0.15;;
64826;SDS011;51265;53.972;12.286;2022-09-21T14:36:15;0.88;;;0.20;;
64826;SDS011;51265;53.972;12.286;2022-09-21T14:38:47;1.20;;;0.30;;
64826;SDS011;51265;53.972;12.286;2022-09-21T14:41:19;0.55;;;0.20;;
64826;SDS011;51265;53.972;12.286;2022-09-21T14:43:49;1.75;;;0.28;;
64826;SDS011;51265;53.972;12.286;2022-09-21T14:46:40;0.80;;;0.20;;
64826;SDS011;51265;53.972;12.286;2022-09-21T14:54:29;1.25;;;0.30;;
64826;SDS011;51265;53.972;12.286;2022-09-21T14:59:44;0.25;;;0.10;;
64826;SDS011;51265;53.972;12.286;2022-09-21T15:02:26;0.90;;;0.10;;
64826;SDS011;51265;53.972;12.286;2022-09-21T15:05:03;1.35;;;0.30;;
64826;SDS011;51265;53.972;12.286;2022-09-21T15:07:47;2.05;;;0.15;;
64826;SDS011;51265;53.972;12.286;2022-09-21T15:10:52;1.30;;;0.20;;
64826;SDS011;51265;53.972;12.286;2022-09-21T15:13:35;1.02;;;0.20;;
64826;SDS011;51265;53.972;12.286;2022-09-21T15:16:16;0.73;;;0.30;;
64826;SDS011;51265;53.972;12.286;2022-09-21T15:18:48;0.38;;;0.20;;
64826;SDS011;51265;53.972;12.286;2022-09-21T15:23:52;0.70;;;0.10;;
64826;SDS011;51265;53.972;12.286;2022-09-21T15:26:22;0.45;;;0.13;;
64826;SDS011;51265;53.972;12.286;2022-09-21T15:28:58;1.38;;;0.20;;
64826;SDS011;51265;53.972;12.286;2022-09-21T15:31:35;0.40;;;0.10;;
64826;SDS011;51265;53.972;12.286;2022-09-21T15:34:04;1.50;;;0.20;;
64826;SDS011;51265;53.972;12.286;2022-09-21T15:36:35;1.60;;;0.50;;
64826;SDS011;51265;53.972;12.286;2022-09-21T15:39:03;0.10;;;0.10;;
64826;SDS011;51265;53.972;12.286;2022-09-21T15:44:04;0.40;;;0.10;;
64826;SDS011;51265;53.972;12.286;2022-09-21T15:46:40;3.40;;;0.22;;
64826;SDS011;51265;53.972;12.286;2022-09-21T15:49:14;1.65;;;0.20;;
64826;SDS011;51265;53.972;12.286;2022-09-21T15:51:47;0.57;;;0.20;;
64826;SDS011;51265;53.972;12.286;2022-09-21T15:54:27;0.28;;;0.20;;
64826;SDS011;51265;53.972;12.286;2022-09-21T15:56:57;1.00;;;0.20;;
64826;SDS011;51265;53.972;12.286;2022-09-21T15:59:25;0.90;;;0.20;;
64826;SDS011;51265;53.972;12.286;2022-09-21T16:01:52;1.27;;;0.30;;
64826;SDS011;51265;53.972;12.286;2022-09-21T16:04:23;2.60;;;1.15;;
64826;SDS011;51265;53.972;12.286;2022-09-21T16:07:05;4.35;;;0.57;;
64826;SDS011;51265;53.972;12.286;2022-09-21T16:09:39;1.55;;;0.28;;
64826;SDS011;51265;53.972;12.286;2022-09-21T16:15:05;1.55;;;0.47;;
64826;SDS011;51265;53.972;12.286;2022-09-21T16:17:39;2.10;;;0.30;;
64826;SDS011;51265;53.972;12.286;2022-09-21T16:20:19;1.80;;;0.40;;
64826;SDS011;51265;53.972;12.286;2022-09-21T16:22:51;0.22;;;0.20;;
64826;SDS011;51265;53.972;12.286;2022-09-21T16:25:29;2.78;;;0.30;;
64826;SDS011;51265;53.972;12.286;2022-09-21T16:28:05;0.75;;;0.20;;
64826;SDS011;51265;53.972;12.286;2022-09-21T16:30:51;0.80;;;0.20;;
64826;SDS011;51265;53.972;12.286;2022-09-21T16:38:42;1.25;;;0.20;;
64826;SDS011;51265;53.972;12.286;2022-09-21T16:41:08;0.22;;;0.20;;
64826;SDS011;51265;53.972;12.286;2022-09-21T16:43:35;0.60;;;0.28;;
64826;SDS011;51265;53.972;12.286;2022-09-21T16:46:08;0.70;;;0.30;;
64826;SDS011;51265;53.972;12.286;2022-09-21T16:48:34;1.88;;;0.30;;
64826;SDS011;51265;53.972;12.286;2022-09-21T16:51:00;2.25;;;0.20;;
64826;SDS011;51265;53.972;12.286;2022-09-21T16:53:26;0.20;;;0.20;;
64826;SDS011;51265;53.972;12.286;2022-09-21T16:55:53;0.47;;;0.20;;
64826;SDS011;51265;53.972;12.286;2022-09-21T16:58:19;0.40;;;0.30;;
64826;SDS011;51265;53.972;12.286;2022-09-21T17:00:51;4.57;;;2.63;;
64826;SDS011;51265;53.972;12.286;2022-09-21T17:03:18;13.43;;;9.18;;
64826;SDS011;51265;53.972;12.286;2022-09-21T17:05:45;4.80;;;2.75;;
64826;SDS011;51265;53.972;12.286;2022-09-21T17:08:12;3.13;;;2.03;;
64826;SDS011;51265;53.972;12.286;2022-09-21T17:10:40;2.08;;;1.00;;
64826;SDS011;51265;53.972;12.286;2022-09-21T17:13:09;1.17;;;0.30;;
64826;SDS011;51265;53.972;12.286;2022-09-21T17:15:37;0.55;;;0.20;;
64826;SDS011;51265;53.972;12.286;2022-09-21T17:18:09;1.08;;;0.40;;
64826;SDS011;51265;53.972;12.286;2022-09-21T17:20:37;0.40;;;0.20;;
64826;SDS011;51265;53.972;12.286;2022-09-21T17:23:06;1.13;;;0.38;;
64826;SDS011;51265;53.972;12.286;2022-09-21T17:25:33;1.48;;;0.30;;
64826;SDS011;51265;53.972;12.286;2022-09-21T17:28:00;0.50;;;0.20;;
64826;SDS011;51265;53.972;12.286;2022-09-21T17:30:28;1.35;;;0.20;;
64826;SDS011;51265;53.972;12.286;2022-09-21T17:32:54;0.98;;;0.35;;
64826;SDS011;51265;53.972;12.286;2022-09-21T17:35:24;1.10;;;0.32;;
64826;SDS011;51265;53.972;12.286;2022-09-21T17:37:56;2.47;;;0.40;;
64826;SDS011;51265;53.972;12.286;2022-09-21T17:40:22;1.67;;;0.45;;
64826;SDS011;51265;53.972;12.286;2022-09-21T17:42:49;1.33;;;0.47;;
64826;SDS011;51265;53.972;12.286;2022-09-21T17:47:51;2.10;;;0.40;;
64826;SDS011;51265;53.972;12.286;2022-09-21T17:50:25;2.08;;;0.45;;
64826;SDS011;51265;53.972;12.286;2022-09-21T17:52:52;0.60;;;0.40;;
64826;SDS011;51265;53.972;12.286;2022-09-21T17:55:42;2.63;;;0.32;;
64826;SDS011;51265;53.972;12.286;2022-09-21T18:03:30;0.80;;;0.30;;
64826;SDS011;51265;53.972;12.286;2022-09-21T18:06:00;2.75;;;1.42;;
64826;SDS011;51265;53.972;12.286;2022-09-21T18:08:27;5.05;;;3.05;;
64826;SDS011;51265;53.972;12.286;2022-09-21T18:13:53;1.48;;;0.85;;
64826;SDS011;51265;53.972;12.286;2022-09-21T18:21:50;1.08;;;0.40;;
64826;SDS011;51265;53.972;12.286;2022-09-21T18:24:25;2.47;;;0.35;;
64826;SDS011;51265;53.972;12.286;2022-09-21T18:26:53;1.38;;;0.43;;
64826;SDS011;51265;53.972;12.286;2022-09-21T18:34:32;1.70;;;0.40;;